Airfield :
LOGIN :

Register | Disclaimer

   EN    FR    IT 

 










Legend :    VFR   Marginal VFR   IFR   Intensive IFR   Very Intensive IFR
Visi :
Ceiling :
>= 8 km
>= 3000ft
5 to 8 km
1000 to 3000 ft
1500m to 5 km
500 to 1000 ft
800 to 1500m
200 to 500 ft
< 800m
< 200 ft
Symbols :   Thunderstorms  Fog  Heavy snow  Heavy precipitations  Wind > 20 kt
SIGMETs :     Misc.  Thunderstorms  Icing  Turbulence  Mountain Waves  Volcanic Ashes







- Airport Elevation : 157 ft
- IATA code : SXF


EDDB - Berlin Schönefeld

CURRENT METAR :
  • 260720Z 23006KT 9999 -RA FEW013 BKN035 BKN047 09/06 Q1011 BECMG 27015G30KT

EXPIRED METARs :
  • 260650Z 22008KT 9999 -RA FEW013 BKN035 08/06 Q1012 RERA BECMG 27015G30KT
  • 260620Z 22006KT 180V240 9999 RA FEW013 BKN035 08/06 Q1011 BECMG NSW
  • 260550Z 23006KT 9999 RA FEW015 BKN036 BKN110 08/06 Q1011 BECMG NSW
  • 260520Z 19003KT 150V220 CAVOK 08/06 Q1011 NOSIG
  • 260450Z 18003KT 160V240 9999 FEW018 SCT048 BKN100 08/05 Q1011 NOSIG

TAF TAF EDDB
Valid from the 26 at 06:00 until the 27 at 06:00 UTC


260500Z 2606/2706 23007KT 9999 SCT040
BECMG 2606/2609 27015G30KT
TEMPO 2608/2617 SHRA BKN020CB
PROB30
TEMPO 2609/2615 27020G40KT TSRA
BECMG 2616/2619 24006KT
No reported NOTAMs for that airfield.



MET'MAP, your aeronautical weather chart ! - Copyright ORBIFLY December 2007 - Disclaimer

ORBIFLY MET'MAP TEAM :

Programming & Development : Alexandra Zaïnal
Concept & Development : Baudouin d'Aumeries
Co-Development & Prog : Marc-Olivier Méhu
Technical & hardware support : Manuel Goepfert

Contact : metmap@orbifly.com




SOURCES & CREDITS :

   NOAA